sensor_id;sensor_type;location;lat;lon;timestamp;P1;durP1;ratioP1;P2;durP2;ratioP2
20000;SDS011;10161;41.188;-8.642;2023-11-19T00:00:27;13.87;;;12.57;;
20000;SDS011;10161;41.188;-8.642;2023-11-19T00:02:54;13.23;;;12.03;;
20000;SDS011;10161;41.188;-8.642;2023-11-19T00:05:22;13.40;;;12.20;;
20000;SDS011;10161;41.188;-8.642;2023-11-19T00:07:49;13.20;;;11.87;;
20000;SDS011;10161;41.188;-8.642;2023-11-19T00:10:16;12.90;;;11.70;;
20000;SDS011;10161;41.188;-8.642;2023-11-19T00:12:45;13.03;;;11.83;;
20000;SDS011;10161;41.188;-8.642;2023-11-19T00:15:12;13.43;;;12.13;;
20000;SDS011;10161;41.188;-8.642;2023-11-19T00:17:39;13.57;;;12.30;;
20000;SDS011;10161;41.188;-8.642;2023-11-19T00:20:10;12.97;;;11.77;;
20000;SDS011;10161;41.188;-8.642;2023-11-19T00:22:39;12.57;;;11.47;;
20000;SDS011;10161;41.188;-8.642;2023-11-19T00:25:07;12.93;;;11.63;;
20000;SDS011;10161;41.188;-8.642;2023-11-19T00:27:34;12.70;;;11.57;;
20000;SDS011;10161;41.188;-8.642;2023-11-19T00:30:02;13.57;;;12.27;;
20000;SDS011;10161;41.188;-8.642;2023-11-19T00:32:31;13.37;;;12.10;;
20000;SDS011;10161;41.188;-8.642;2023-11-19T00:34:58;12.27;;;11.17;;
20000;SDS011;10161;41.188;-8.642;2023-11-19T00:37:25;12.77;;;11.50;;
20000;SDS011;10161;41.188;-8.642;2023-11-19T00:39:53;12.83;;;11.53;;
20000;SDS011;10161;41.188;-8.642;2023-11-19T00:42:21;13.10;;;11.80;;
20000;SDS011;10161;41.188;-8.642;2023-11-19T00:44:49;11.87;;;10.77;;
20000;SDS011;10161;41.188;-8.642;2023-11-19T00:47:16;12.57;;;11.37;;
20000;SDS011;10161;41.188;-8.642;2023-11-19T00:49:45;12.87;;;11.67;;
20000;SDS011;10161;41.188;-8.642;2023-11-19T00:52:13;12.10;;;11.00;;
20000;SDS011;10161;41.188;-8.642;2023-11-19T00:54:40;13.27;;;11.97;;
20000;SDS011;10161;41.188;-8.642;2023-11-19T00:57:08;12.80;;;11.60;;
20000;SDS011;10161;41.188;-8.642;2023-11-19T00:59:35;13.93;;;12.63;;
20000;SDS011;10161;41.188;-8.642;2023-11-19T01:02:03;12.17;;;11.07;;
20000;SDS011;10161;41.188;-8.642;2023-11-19T01:04:33;13.70;;;12.33;;
20000;SDS011;10161;41.188;-8.642;2023-11-19T01:07:01;13.03;;;11.73;;
20000;SDS011;10161;41.188;-8.642;2023-11-19T01:09:29;13.90;;;12.53;;
20000;SDS011;10161;41.188;-8.642;2023-11-19T01:11:57;12.43;;;11.23;;
20000;SDS011;10161;41.188;-8.642;2023-11-19T01:14:27;13.07;;;11.83;;
20000;SDS011;10161;41.188;-8.642;2023-11-19T01:16:54;12.37;;;11.27;;
20000;SDS011;10161;41.188;-8.642;2023-11-19T01:19:21;12.43;;;11.33;;
20000;SDS011;10161;41.188;-8.642;2023-11-19T01:21:49;12.30;;;11.10;;
20000;SDS011;10161;41.188;-8.642;2023-11-19T01:24:16;12.87;;;11.57;;
20000;SDS011;10161;41.188;-8.642;2023-11-19T01:26:43;13.93;;;11.80;;
20000;SDS011;10161;41.188;-8.642;2023-11-19T01:29:11;12.23;;;11.13;;
20000;SDS011;10161;41.188;-8.642;2023-11-19T01:31:41;11.90;;;10.87;;
20000;SDS011;10161;41.188;-8.642;2023-11-19T01:34:08;12.47;;;11.27;;
20000;SDS011;10161;41.188;-8.642;2023-11-19T01:36:36;12.27;;;11.17;;
20000;SDS011;10161;41.188;-8.642;2023-11-19T01:39:04;11.70;;;10.70;;
20000;SDS011;10161;41.188;-8.642;2023-11-19T01:41:33;12.50;;;11.23;;
20000;SDS011;10161;41.188;-8.642;2023-11-19T01:44:01;12.27;;;11.07;;
20000;SDS011;10161;41.188;-8.642;2023-11-19T01:46:28;12.77;;;11.57;;
20000;SDS011;10161;41.188;-8.642;2023-11-19T01:48:56;13.30;;;12.03;;
20000;SDS011;10161;41.188;-8.642;2023-11-19T01:51:23;11.87;;;10.77;;
20000;SDS011;10161;41.188;-8.642;2023-11-19T01:53:50;12.63;;;11.40;;
20000;SDS011;10161;41.188;-8.642;2023-11-19T01:56:18;12.30;;;11.10;;
20000;SDS011;10161;41.188;-8.642;2023-11-19T01:58:45;11.97;;;10.77;;
20000;SDS011;10161;41.188;-8.642;2023-11-19T02:01:12;12.20;;;11.10;;
20000;SDS011;10161;41.188;-8.642;2023-11-19T02:03:40;12.83;;;11.63;;
20000;SDS011;10161;41.188;-8.642;2023-11-19T02:06:08;12.80;;;11.60;;
20000;SDS011;10161;41.188;-8.642;2023-11-19T02:08:35;13.53;;;12.20;;
20000;SDS011;10161;41.188;-8.642;2023-11-19T02:11:04;13.50;;;12.27;;
20000;SDS011;10161;41.188;-8.642;2023-11-19T02:13:32;13.80;;;12.50;;
20000;SDS011;10161;41.188;-8.642;2023-11-19T02:16:01;13.33;;;11.97;;
20000;SDS011;10161;41.188;-8.642;2023-11-19T02:18:28;14.03;;;12.20;;
20000;SDS011;10161;41.188;-8.642;2023-11-19T02:20:55;14.13;;;12.73;;
20000;SDS011;10161;41.188;-8.642;2023-11-19T02:23:23;12.37;;;11.27;;
20000;SDS011;10161;41.188;-8.642;2023-11-19T02:25:59;12.70;;;11.47;;
20000;SDS011;10161;41.188;-8.642;2023-11-19T02:28:32;12.43;;;11.23;;
20000;SDS011;10161;41.188;-8.642;2023-11-19T02:30:59;12.37;;;11.17;;
20000;SDS011;10161;41.188;-8.642;2023-11-19T02:33:26;12.10;;;11.00;;
20000;SDS011;10161;41.188;-8.642;2023-11-19T02:35:54;12.97;;;11.67;;
20000;SDS011;10161;41.188;-8.642;2023-11-19T02:38:21;12.30;;;11.20;;
20000;SDS011;10161;41.188;-8.642;2023-11-19T02:40:48;12.50;;;11.30;;
20000;SDS011;10161;41.188;-8.642;2023-11-19T02:43:15;12.77;;;11.57;;
20000;SDS011;10161;41.188;-8.642;2023-11-19T02:45:44;13.17;;;11.87;;
20000;SDS011;10161;41.188;-8.642;2023-11-19T02:48:11;12.90;;;11.70;;
20000;SDS011;10161;41.188;-8.642;2023-11-19T02:50:39;12.07;;;10.93;;
20000;SDS011;10161;41.188;-8.642;2023-11-19T02:53:06;12.47;;;11.33;;
20000;SDS011;10161;41.188;-8.642;2023-11-19T02:55:33;12.60;;;11.40;;
20000;SDS011;10161;41.188;-8.642;2023-11-19T02:58:03;11.13;;;10.07;;
20000;SDS011;10161;41.188;-8.642;2023-11-19T03:00:46;12.07;;;10.87;;
20000;SDS011;10161;41.188;-8.642;2023-11-19T03:03:19;12.10;;;10.90;;
20000;SDS011;10161;41.188;-8.642;2023-11-19T03:05:47;12.70;;;11.50;;
20000;SDS011;10161;41.188;-8.642;2023-11-19T03:08:15;12.87;;;11.70;;
20000;SDS011;10161;41.188;-8.642;2023-11-19T03:10:42;12.27;;;11.07;;
20000;SDS011;10161;41.188;-8.642;2023-11-19T03:13:11;12.60;;;11.40;;
20000;SDS011;10161;41.188;-8.642;2023-11-19T03:15:39;12.67;;;11.47;;
20000;SDS011;10161;41.188;-8.642;2023-11-19T03:18:07;12.20;;;11.00;;
20000;SDS011;10161;41.188;-8.642;2023-11-19T03:20:38;12.10;;;10.90;;
20000;SDS011;10161;41.188;-8.642;2023-11-19T03:23:05;13.13;;;11.90;;
20000;SDS011;10161;41.188;-8.642;2023-11-19T03:25:32;12.00;;;10.83;;
20000;SDS011;10161;41.188;-8.642;2023-11-19T03:27:59;12.37;;;11.27;;
20000;SDS011;10161;41.188;-8.642;2023-11-19T03:30:27;11.93;;;10.90;;
20000;SDS011;10161;41.188;-8.642;2023-11-19T03:32:54;13.50;;;12.20;;
20000;SDS011;10161;41.188;-8.642;2023-11-19T03:35:23;12.40;;;11.23;;
20000;SDS011;10161;41.188;-8.642;2023-11-19T03:37:50;12.60;;;11.40;;
20000;SDS011;10161;41.188;-8.642;2023-11-19T03:40:17;12.60;;;11.40;;
20000;SDS011;10161;41.188;-8.642;2023-11-19T03:42:45;13.00;;;11.77;;
20000;SDS011;10161;41.188;-8.642;2023-11-19T03:45:12;12.43;;;11.23;;
20000;SDS011;10161;41.188;-8.642;2023-11-19T03:47:39;13.17;;;11.90;;
20000;SDS011;10161;41.188;-8.642;2023-11-19T03:50:06;13.03;;;11.73;;
20000;SDS011;10161;41.188;-8.642;2023-11-19T03:52:35;12.30;;;11.00;;
20000;SDS011;10161;41.188;-8.642;2023-11-19T03:55:03;12.87;;;11.57;;
20000;SDS011;10161;41.188;-8.642;2023-11-19T03:57:31;12.80;;;11.50;;
20000;SDS011;10161;41.188;-8.642;2023-11-19T03:59:58;12.10;;;11.00;;
20000;SDS011;10161;41.188;-8.642;2023-11-19T04:02:24;11.30;;;10.20;;
20000;SDS011;10161;41.188;-8.642;2023-11-19T04:04:53;13.00;;;11.77;;
20000;SDS011;10161;41.188;-8.642;2023-11-19T04:07:21;12.47;;;11.27;;
20000;SDS011;10161;41.188;-8.642;2023-11-19T04:09:49;12.10;;;10.90;;
20000;SDS011;10161;41.188;-8.642;2023-11-19T04:12:16;11.67;;;10.57;;
20000;SDS011;10161;41.188;-8.642;2023-11-19T04:14:43;11.87;;;10.77;;
20000;SDS011;10161;41.188;-8.642;2023-11-19T04:17:10;12.20;;;11.00;;
20000;SDS011;10161;41.188;-8.642;2023-11-19T04:19:37;11.90;;;10.73;;
20000;SDS011;10161;41.188;-8.642;2023-11-19T04:22:06;11.60;;;10.50;;
20000;SDS011;10161;41.188;-8.642;2023-11-19T04:24:34;13.00;;;11.70;;
20000;SDS011;10161;41.188;-8.642;2023-11-19T04:27:03;11.47;;;10.33;;
20000;SDS011;10161;41.188;-8.642;2023-11-19T04:29:31;11.27;;;10.17;;
20000;SDS011;10161;41.188;-8.642;2023-11-19T04:31:59;12.57;;;11.40;;
20000;SDS011;10161;41.188;-8.642;2023-11-19T04:34:26;11.90;;;10.80;;
20000;SDS011;10161;41.188;-8.642;2023-11-19T04:36:53;11.83;;;10.70;;
20000;SDS011;10161;41.188;-8.642;2023-11-19T04:39:20;11.77;;;10.67;;
20000;SDS011;10161;41.188;-8.642;2023-11-19T04:41:48;11.53;;;10.43;;
20000;SDS011;10161;41.188;-8.642;2023-11-19T04:44:16;11.43;;;10.33;;
20000;SDS011;10161;41.188;-8.642;2023-11-19T04:46:43;11.47;;;10.37;;
20000;SDS011;10161;41.188;-8.642;2023-11-19T04:49:10;12.20;;;11.00;;
20000;SDS011;10161;41.188;-8.642;2023-11-19T04:51:38;12.50;;;11.20;;
20000;SDS011;10161;41.188;-8.642;2023-11-19T04:54:07;12.17;;;10.97;;
20000;SDS011;10161;41.188;-8.642;2023-11-19T04:56:34;11.10;;;10.10;;
20000;SDS011;10161;41.188;-8.642;2023-11-19T04:59:02;11.20;;;10.20;;
20000;SDS011;10161;41.188;-8.642;2023-11-19T05:01:32;11.60;;;10.50;;
20000;SDS011;10161;41.188;-8.642;2023-11-19T05:03:59;11.43;;;10.33;;
20000;SDS011;10161;41.188;-8.642;2023-11-19T05:06:27;11.17;;;10.07;;
20000;SDS011;10161;41.188;-8.642;2023-11-19T05:08:54;12.27;;;11.07;;
20000;SDS011;10161;41.188;-8.642;2023-11-19T05:11:21;11.60;;;10.40;;
20000;SDS011;10161;41.188;-8.642;2023-11-19T05:13:48;11.13;;;10.03;;
20000;SDS011;10161;41.188;-8.642;2023-11-19T05:16:15;12.20;;;11.00;;
20000;SDS011;10161;41.188;-8.642;2023-11-19T05:18:44;11.97;;;10.77;;
20000;SDS011;10161;41.188;-8.642;2023-11-19T05:21:11;12.30;;;10.93;;
20000;SDS011;10161;41.188;-8.642;2023-11-19T05:23:38;12.30;;;11.10;;
20000;SDS011;10161;41.188;-8.642;2023-11-19T05:26:07;12.13;;;10.93;;
20000;SDS011;10161;41.188;-8.642;2023-11-19T05:28:36;11.43;;;10.27;;
20000;SDS011;10161;41.188;-8.642;2023-11-19T05:31:04;10.40;;;9.40;;
20000;SDS011;10161;41.188;-8.642;2023-11-19T05:33:32;10.73;;;9.73;;
20000;SDS011;10161;41.188;-8.642;2023-11-19T05:36:00;11.93;;;10.80;;
20000;SDS011;10161;41.188;-8.642;2023-11-19T05:38:28;10.87;;;9.77;;
20000;SDS011;10161;41.188;-8.642;2023-11-19T05:40:55;11.43;;;10.43;;
20000;SDS011;10161;41.188;-8.642;2023-11-19T05:43:22;10.80;;;9.80;;
20000;SDS011;10161;41.188;-8.642;2023-11-19T05:45:49;11.67;;;10.57;;
20000;SDS011;10161;41.188;-8.642;2023-11-19T05:48:16;11.70;;;10.50;;
20000;SDS011;10161;41.188;-8.642;2023-11-19T05:50:43;11.13;;;10.13;;
20000;SDS011;10161;41.188;-8.642;2023-11-19T05:53:11;12.10;;;10.90;;
20000;SDS011;10161;41.188;-8.642;2023-11-19T05:55:40;11.60;;;10.40;;
20000;SDS011;10161;41.188;-8.642;2023-11-19T05:58:15;10.40;;;9.40;;
20000;SDS011;10161;41.188;-8.642;2023-11-19T06:00:41;11.97;;;10.87;;
20000;SDS011;10161;41.188;-8.642;2023-11-19T06:03:08;11.17;;;10.07;;
20000;SDS011;10161;41.188;-8.642;2023-11-19T06:05:35;11.47;;;10.37;;
20000;SDS011;10161;41.188;-8.642;2023-11-19T06:08:02;10.43;;;9.40;;
20000;SDS011;10161;41.188;-8.642;2023-11-19T06:10:31;11.30;;;10.20;;
20000;SDS011;10161;41.188;-8.642;2023-11-19T06:12:58;10.93;;;9.93;;
20000;SDS011;10161;41.188;-8.642;2023-11-19T06:15:25;10.23;;;9.20;;
20000;SDS011;10161;41.188;-8.642;2023-11-19T06:17:53;11.30;;;10.20;;
20000;SDS011;10161;41.188;-8.642;2023-11-19T06:20:19;10.63;;;9.63;;
20000;SDS011;10161;41.188;-8.642;2023-11-19T06:22:46;10.10;;;9.10;;
20000;SDS011;10161;41.188;-8.642;2023-11-19T06:25:13;10.17;;;9.17;;
20000;SDS011;10161;41.188;-8.642;2023-11-19T06:27:43;10.40;;;9.40;;
20000;SDS011;10161;41.188;-8.642;2023-11-19T06:30:10;10.87;;;9.80;;
20000;SDS011;10161;41.188;-8.642;2023-11-19T06:32:38;10.97;;;9.97;;
20000;SDS011;10161;41.188;-8.642;2023-11-19T06:35:05;10.57;;;9.57;;
20000;SDS011;10161;41.188;-8.642;2023-11-19T06:37:32;11.33;;;10.20;;
20000;SDS011;10161;41.188;-8.642;2023-11-19T06:39:59;10.30;;;9.30;;
20000;SDS011;10161;41.188;-8.642;2023-11-19T06:42:26;11.03;;;9.93;;
20000;SDS011;10161;41.188;-8.642;2023-11-19T06:44:54;11.60;;;10.40;;
20000;SDS011;10161;41.188;-8.642;2023-11-19T06:47:22;11.00;;;10.00;;
20000;SDS011;10161;41.188;-8.642;2023-11-19T06:49:49;11.47;;;10.30;;
20000;SDS011;10161;41.188;-8.642;2023-11-19T06:52:16;10.70;;;9.63;;
20000;SDS011;10161;41.188;-8.642;2023-11-19T06:54:43;10.63;;;9.60;;
20000;SDS011;10161;41.188;-8.642;2023-11-19T06:57:10;10.77;;;9.67;;
20000;SDS011;10161;41.188;-8.642;2023-11-19T06:59:37;10.17;;;9.17;;
20000;SDS011;10161;41.188;-8.642;2023-11-19T07:02:06;11.33;;;10.13;;
20000;SDS011;10161;41.188;-8.642;2023-11-19T07:04:34;11.17;;;9.83;;
20000;SDS011;10161;41.188;-8.642;2023-11-19T07:07:00;10.77;;;9.77;;
20000;SDS011;10161;41.188;-8.642;2023-11-19T07:09:27;10.23;;;9.23;;
20000;SDS011;10161;41.188;-8.642;2023-11-19T07:11:54;11.07;;;9.97;;
20000;SDS011;10161;41.188;-8.642;2023-11-19T07:14:21;10.57;;;9.57;;
20000;SDS011;10161;41.188;-8.642;2023-11-19T07:16:48;10.13;;;9.13;;
20000;SDS011;10161;41.188;-8.642;2023-11-19T07:19:18;10.00;;;8.90;;
20000;SDS011;10161;41.188;-8.642;2023-11-19T07:21:44;11.30;;;10.10;;
20000;SDS011;10161;41.188;-8.642;2023-11-19T07:24:11;9.87;;;8.87;;
20000;SDS011;10161;41.188;-8.642;2023-11-19T07:26:41;11.30;;;10.20;;
20000;SDS011;10161;41.188;-8.642;2023-11-19T07:29:09;10.80;;;9.70;;
20000;SDS011;10161;41.188;-8.642;2023-11-19T07:31:36;10.30;;;9.20;;
20000;SDS011;10161;41.188;-8.642;2023-11-19T07:34:03;10.43;;;9.40;;
20000;SDS011;10161;41.188;-8.642;2023-11-19T07:36:31;10.67;;;9.57;;
20000;SDS011;10161;41.188;-8.642;2023-11-19T07:38:59;10.43;;;9.43;;
20000;SDS011;10161;41.188;-8.642;2023-11-19T07:41:25;9.97;;;8.87;;
20000;SDS011;10161;41.188;-8.642;2023-11-19T07:43:52;10.73;;;9.63;;
20000;SDS011;10161;41.188;-8.642;2023-11-19T07:46:19;11.07;;;9.40;;
20000;SDS011;10161;41.188;-8.642;2023-11-19T07:48:46;11.20;;;10.10;;
20000;SDS011;10161;41.188;-8.642;2023-11-19T07:51:13;11.40;;;10.20;;
20000;SDS011;10161;41.188;-8.642;2023-11-19T07:53:42;10.43;;;9.33;;
20000;SDS011;10161;41.188;-8.642;2023-11-19T07:56:09;10.43;;;9.33;;
20000;SDS011;10161;41.188;-8.642;2023-11-19T07:58:37;10.40;;;9.40;;
20000;SDS011;10161;41.188;-8.642;2023-11-19T08:01:04;10.20;;;9.20;;
20000;SDS011;10161;41.188;-8.642;2023-11-19T08:03:31;11.47;;;10.27;;
20000;SDS011;10161;41.188;-8.642;2023-11-19T08:05:59;10.77;;;9.67;;
20000;SDS011;10161;41.188;-8.642;2023-11-19T08:08:26;11.23;;;10.13;;
20000;SDS011;10161;41.188;-8.642;2023-11-19T08:10:56;11.03;;;9.93;;
20000;SDS011;10161;41.188;-8.642;2023-11-19T08:13:23;12.27;;;10.97;;
20000;SDS011;10161;41.188;-8.642;2023-11-19T08:15:50;10.53;;;9.43;;
20000;SDS011;10161;41.188;-8.642;2023-11-19T08:18:17;11.20;;;10.10;;
20000;SDS011;10161;41.188;-8.642;2023-11-19T08:20:44;11.47;;;10.37;;
20000;SDS011;10161;41.188;-8.642;2023-11-19T08:23:14;12.20;;;11.00;;
20000;SDS011;10161;41.188;-8.642;2023-11-19T08:25:41;11.57;;;10.47;;
20000;SDS011;10161;41.188;-8.642;2023-11-19T08:28:09;13.10;;;11.77;;
20000;SDS011;10161;41.188;-8.642;2023-11-19T08:30:38;12.93;;;11.63;;
20000;SDS011;10161;41.188;-8.642;2023-11-19T08:33:05;12.33;;;11.13;;
20000;SDS011;10161;41.188;-8.642;2023-11-19T08:35:32;11.93;;;10.80;;
20000;SDS011;10161;41.188;-8.642;2023-11-19T08:37:59;12.27;;;11.17;;
20000;SDS011;10161;41.188;-8.642;2023-11-19T08:40:26;13.00;;;11.70;;
20000;SDS011;10161;41.188;-8.642;2023-11-19T08:42:54;12.70;;;11.40;;
20000;SDS011;10161;41.188;-8.642;2023-11-19T08:45:23;13.00;;;11.70;;
20000;SDS011;10161;41.188;-8.642;2023-11-19T08:47:50;12.60;;;11.30;;
20000;SDS011;10161;41.188;-8.642;2023-11-19T08:50:17;12.20;;;11.00;;
20000;SDS011;10161;41.188;-8.642;2023-11-19T08:52:44;12.50;;;11.27;;
20000;SDS011;10161;41.188;-8.642;2023-11-19T08:55:11;11.93;;;10.83;;
20000;SDS011;10161;41.188;-8.642;2023-11-19T08:57:38;12.57;;;11.30;;
20000;SDS011;10161;41.188;-8.642;2023-11-19T09:00:06;13.20;;;11.90;;
20000;SDS011;10161;41.188;-8.642;2023-11-19T09:02:35;12.07;;;10.87;;
20000;SDS011;10161;41.188;-8.642;2023-11-19T09:05:03;12.40;;;11.20;;
20000;SDS011;10161;41.188;-8.642;2023-11-19T09:07:31;12.70;;;11.40;;
20000;SDS011;10161;41.188;-8.642;2023-11-19T09:09:58;11.57;;;10.47;;
20000;SDS011;10161;41.188;-8.642;2023-11-19T09:12:25;12.27;;;11.07;;
20000;SDS011;10161;41.188;-8.642;2023-11-19T09:14:51;11.83;;;10.63;;
20000;SDS011;10161;41.188;-8.642;2023-11-19T09:17:19;12.03;;;10.87;;
20000;SDS011;10161;41.188;-8.642;2023-11-19T09:19:47;11.13;;;10.07;;
20000;SDS011;10161;41.188;-8.642;2023-11-19T09:22:14;12.00;;;10.80;;
20000;SDS011;10161;41.188;-8.642;2023-11-19T09:24:41;11.60;;;10.40;;
20000;SDS011;10161;41.188;-8.642;2023-11-19T09:27:09;11.47;;;10.37;;
20000;SDS011;10161;41.188;-8.642;2023-11-19T09:29:37;11.17;;;10.07;;
20000;SDS011;10161;41.188;-8.642;2023-11-19T09:32:04;12.17;;;10.60;;
20000;SDS011;10161;41.188;-8.642;2023-11-19T09:34:31;10.67;;;9.67;;
20000;SDS011;10161;41.188;-8.642;2023-11-19T09:37:00;10.57;;;9.67;;
20000;SDS011;10161;41.188;-8.642;2023-11-19T09:39:28;10.53;;;9.53;;
20000;SDS011;10161;41.188;-8.642;2023-11-19T09:41:55;10.33;;;9.30;;
20000;SDS011;10161;41.188;-8.642;2023-11-19T09:44:23;10.33;;;9.33;;
20000;SDS011;10161;41.188;-8.642;2023-11-19T09:46:50;9.67;;;8.77;;
20000;SDS011;10161;41.188;-8.642;2023-11-19T09:49:18;10.20;;;9.10;;
20000;SDS011;10161;41.188;-8.642;2023-11-19T09:51:47;10.23;;;9.23;;
20000;SDS011;10161;41.188;-8.642;2023-11-19T09:54:16;9.40;;;8.50;;
20000;SDS011;10161;41.188;-8.642;2023-11-19T09:56:43;9.57;;;8.70;;
20000;SDS011;10161;41.188;-8.642;2023-11-19T09:59:10;9.10;;;8.20;;
20000;SDS011;10161;41.188;-8.642;2023-11-19T10:01:37;9.00;;;8.10;;
20000;SDS011;10161;41.188;-8.642;2023-11-19T10:04:05;8.80;;;7.97;;
20000;SDS011;10161;41.188;-8.642;2023-11-19T10:06:33;8.90;;;8.10;;
20000;SDS011;10161;41.188;-8.642;2023-11-19T10:08:59;8.60;;;7.80;;
20000;SDS011;10161;41.188;-8.642;2023-11-19T10:11:28;9.33;;;8.43;;
20000;SDS011;10161;41.188;-8.642;2023-11-19T10:13:55;7.97;;;7.30;;
20000;SDS011;10161;41.188;-8.642;2023-11-19T10:16:27;7.80;;;7.10;;
20000;SDS011;10161;41.188;-8.642;2023-11-19T10:18:55;8.20;;;7.43;;
20000;SDS011;10161;41.188;-8.642;2023-11-19T10:21:22;8.53;;;7.63;;
20000;SDS011;10161;41.188;-8.642;2023-11-19T10:23:49;7.73;;;6.93;;
20000;SDS011;10161;41.188;-8.642;2023-11-19T10:26:17;7.87;;;7.10;;
20000;SDS011;10161;41.188;-8.642;2023-11-19T10:28:46;7.73;;;7.03;;
20000;SDS011;10161;41.188;-8.642;2023-11-19T10:31:14;7.20;;;6.60;;
20000;SDS011;10161;41.188;-8.642;2023-11-19T10:33:41;7.97;;;7.17;;
20000;SDS011;10161;41.188;-8.642;2023-11-19T10:36:10;7.50;;;6.80;;
20000;SDS011;10161;41.188;-8.642;2023-11-19T10:38:38;8.00;;;7.20;;
20000;SDS011;10161;41.188;-8.642;2023-11-19T10:41:04;7.93;;;7.23;;
20000;SDS011;10161;41.188;-8.642;2023-11-19T10:43:31;7.60;;;6.90;;
20000;SDS011;10161;41.188;-8.642;2023-11-19T10:46:11;7.53;;;6.83;;
20000;SDS011;10161;41.188;-8.642;2023-11-19T10:48:39;7.23;;;6.53;;
20000;SDS011;10161;41.188;-8.642;2023-11-19T10:51:06;6.90;;;6.30;;
20000;SDS011;10161;41.188;-8.642;2023-11-19T10:53:36;6.70;;;6.10;;
20000;SDS011;10161;41.188;-8.642;2023-11-19T10:56:04;6.20;;;5.70;;
20000;SDS011;10161;41.188;-8.642;2023-11-19T10:58:35;7.10;;;6.40;;
20000;SDS011;10161;41.188;-8.642;2023-11-19T11:01:05;6.93;;;6.33;;
20000;SDS011;10161;41.188;-8.642;2023-11-19T11:03:39;6.60;;;6.00;;
20000;SDS011;10161;41.188;-8.642;2023-11-19T11:06:06;6.77;;;6.17;;
20000;SDS011;10161;41.188;-8.642;2023-11-19T11:08:34;6.80;;;6.20;;
20000;SDS011;10161;41.188;-8.642;2023-11-19T11:11:03;6.97;;;6.37;;
20000;SDS011;10161;41.188;-8.642;2023-11-19T11:13:31;6.47;;;5.90;;
20000;SDS011;10161;41.188;-8.642;2023-11-19T11:15:59;6.20;;;5.70;;
20000;SDS011;10161;41.188;-8.642;2023-11-19T11:18:28;6.83;;;6.23;;
20000;SDS011;10161;41.188;-8.642;2023-11-19T11:20:56;6.90;;;6.30;;
20000;SDS011;10161;41.188;-8.642;2023-11-19T11:26:24;6.10;;;5.60;;
20000;SDS011;10161;41.188;-8.642;2023-11-19T11:29:10;5.70;;;5.20;;
20000;SDS011;10161;41.188;-8.642;2023-11-19T11:31:43;5.80;;;5.30;;
20000;SDS011;10161;41.188;-8.642;2023-11-19T11:37:21;6.90;;;6.23;;
20000;SDS011;10161;41.188;-8.642;2023-11-19T11:39:52;5.73;;;5.23;;
20000;SDS011;10161;41.188;-8.642;2023-11-19T11:42:35;5.50;;;5.10;;
20000;SDS011;10161;41.188;-8.642;2023-11-19T11:45:03;6.33;;;5.73;;
20000;SDS011;10161;41.188;-8.642;2023-11-19T11:50:34;6.40;;;5.80;;
20000;SDS011;10161;41.188;-8.642;2023-11-19T11:53:16;6.03;;;5.53;;
20000;SDS011;10161;41.188;-8.642;2023-11-19T11:55:56;6.07;;;5.57;;
20000;SDS011;10161;41.188;-8.642;2023-11-19T11:58:35;5.63;;;5.13;;
20000;SDS011;10161;41.188;-8.642;2023-11-19T12:01:04;5.90;;;5.40;;
20000;SDS011;10161;41.188;-8.642;2023-11-19T12:03:34;5.30;;;4.90;;
20000;SDS011;10161;41.188;-8.642;2023-11-19T12:06:03;5.70;;;5.30;;
20000;SDS011;10161;41.188;-8.642;2023-11-19T12:08:30;5.73;;;5.23;;
20000;SDS011;10161;41.188;-8.642;2023-11-19T12:10:58;4.97;;;4.57;;
20000;SDS011;10161;41.188;-8.642;2023-11-19T12:13:29;5.47;;;5.00;;
20000;SDS011;10161;41.188;-8.642;2023-11-19T12:16:10;5.17;;;4.77;;
20000;SDS011;10161;41.188;-8.642;2023-11-19T12:18:40;5.70;;;5.20;;
20000;SDS011;10161;41.188;-8.642;2023-11-19T12:21:09;5.77;;;5.27;;
20000;SDS011;10161;41.188;-8.642;2023-11-19T12:23:43;5.43;;;5.03;;
20000;SDS011;10161;41.188;-8.642;2023-11-19T12:28:59;5.83;;;5.33;;
20000;SDS011;10161;41.188;-8.642;2023-11-19T12:31:28;6.20;;;5.27;;
20000;SDS011;10161;41.188;-8.642;2023-11-19T12:33:55;5.43;;;4.93;;
20000;SDS011;10161;41.188;-8.642;2023-11-19T12:36:24;5.30;;;4.90;;
20000;SDS011;10161;41.188;-8.642;2023-11-19T12:38:51;6.10;;;5.60;;
20000;SDS011;10161;41.188;-8.642;2023-11-19T12:41:18;5.80;;;5.30;;
20000;SDS011;10161;41.188;-8.642;2023-11-19T12:43:48;5.70;;;5.20;;
20000;SDS011;10161;41.188;-8.642;2023-11-19T12:46:18;6.40;;;5.80;;
20000;SDS011;10161;41.188;-8.642;2023-11-19T12:48:46;5.30;;;4.90;;
20000;SDS011;10161;41.188;-8.642;2023-11-19T12:51:13;6.00;;;5.50;;
20000;SDS011;10161;41.188;-8.642;2023-11-19T12:53:50;5.97;;;5.27;;
20000;SDS011;10161;41.188;-8.642;2023-11-19T12:56:19;6.00;;;5.50;;
20000;SDS011;10161;41.188;-8.642;2023-11-19T12:58:46;5.77;;;5.30;;
20000;SDS011;10161;41.188;-8.642;2023-11-19T13:01:15;5.70;;;5.20;;
20000;SDS011;10161;41.188;-8.642;2023-11-19T13:03:44;6.00;;;5.43;;
20000;SDS011;10161;41.188;-8.642;2023-11-19T13:06:12;5.37;;;4.93;;
20000;SDS011;10161;41.188;-8.642;2023-11-19T13:08:42;6.10;;;5.60;;
20000;SDS011;10161;41.188;-8.642;2023-11-19T13:11:11;6.00;;;5.33;;
20000;SDS011;10161;41.188;-8.642;2023-11-19T13:13:54;5.60;;;5.10;;
20000;SDS011;10161;41.188;-8.642;2023-11-19T13:16:21;5.80;;;5.30;;
20000;SDS011;10161;41.188;-8.642;2023-11-19T13:18:48;5.70;;;5.20;;
20000;SDS011;10161;41.188;-8.642;2023-11-19T13:21:16;6.20;;;5.70;;
20000;SDS011;10161;41.188;-8.642;2023-11-19T13:23:43;5.50;;;5.00;;
20000;SDS011;10161;41.188;-8.642;2023-11-19T13:26:12;6.07;;;5.47;;
20000;SDS011;10161;41.188;-8.642;2023-11-19T13:28:39;6.40;;;5.80;;
20000;SDS011;10161;41.188;-8.642;2023-11-19T13:31:06;5.63;;;5.13;;
20000;SDS011;10161;41.188;-8.642;2023-11-19T13:33:32;6.10;;;5.50;;
20000;SDS011;10161;41.188;-8.642;2023-11-19T13:35:59;5.90;;;5.17;;
20000;SDS011;10161;41.188;-8.642;2023-11-19T13:38:31;6.03;;;5.43;;
20000;SDS011;10161;41.188;-8.642;2023-11-19T13:40:58;7.90;;;5.83;;
20000;SDS011;10161;41.188;-8.642;2023-11-19T13:43:26;5.40;;;4.90;;
20000;SDS011;10161;41.188;-8.642;2023-11-19T13:45:54;4.93;;;4.53;;
20000;SDS011;10161;41.188;-8.642;2023-11-19T13:48:21;5.70;;;5.17;;
20000;SDS011;10161;41.188;-8.642;2023-11-19T13:50:47;6.20;;;5.60;;
20000;SDS011;10161;41.188;-8.642;2023-11-19T13:53:15;5.00;;;4.60;;
20000;SDS011;10161;41.188;-8.642;2023-11-19T13:55:42;5.17;;;4.77;;
20000;SDS011;10161;41.188;-8.642;2023-11-19T13:58:09;5.80;;;5.23;;
20000;SDS011;10161;41.188;-8.642;2023-11-19T14:00:37;5.70;;;5.20;;
20000;SDS011;10161;41.188;-8.642;2023-11-19T14:03:05;6.33;;;5.43;;
20000;SDS011;10161;41.188;-8.642;2023-11-19T14:05:32;6.40;;;5.80;;
20000;SDS011;10161;41.188;-8.642;2023-11-19T14:07:59;6.80;;;6.20;;
20000;SDS011;10161;41.188;-8.642;2023-11-19T14:10:26;6.27;;;5.67;;
20000;SDS011;10161;41.188;-8.642;2023-11-19T14:12:53;7.20;;;6.10;;
20000;SDS011;10161;41.188;-8.642;2023-11-19T14:15:20;6.40;;;5.80;;
20000;SDS011;10161;41.188;-8.642;2023-11-19T14:17:49;6.10;;;5.57;;
20000;SDS011;10161;41.188;-8.642;2023-11-19T14:20:16;6.20;;;5.60;;
20000;SDS011;10161;41.188;-8.642;2023-11-19T14:22:43;7.40;;;6.70;;
20000;SDS011;10161;41.188;-8.642;2023-11-19T14:25:13;8.33;;;6.40;;
20000;SDS011;10161;41.188;-8.642;2023-11-19T14:27:41;7.60;;;6.37;;
20000;SDS011;10161;41.188;-8.642;2023-11-19T14:30:10;8.33;;;6.60;;
20000;SDS011;10161;41.188;-8.642;2023-11-19T14:32:38;7.90;;;7.10;;
20000;SDS011;10161;41.188;-8.642;2023-11-19T14:35:09;7.00;;;6.40;;